sensor_id;sensor_type;location;lat;lon;timestamp;pressure;altitude;pressure_sealevel;temperature;humidity
75794;BME280;64418;47.536;19.074;2023-12-28T00:01:45;101168.47;;;3.61;100.00
75794;BME280;64418;47.536;19.074;2023-12-28T00:04:11;101166.72;;;3.89;100.00
75794;BME280;64418;47.536;19.074;2023-12-28T00:06:36;101167.47;;;3.72;100.00
75794;BME280;64418;47.536;19.074;2023-12-28T00:09:02;101170.44;;;3.50;100.00
75794;BME280;64418;47.536;19.074;2023-12-28T00:11:28;101171.59;;;3.28;100.00
75794;BME280;64418;47.536;19.074;2023-12-28T00:13:54;101164.50;;;3.17;100.00
75794;BME280;64418;47.536;19.074;2023-12-28T00:16:22;101168.16;;;3.07;100.00
75794;BME280;64418;47.536;19.074;2023-12-28T00:18:47;101177.91;;;2.98;100.00
75794;BME280;64418;47.536;19.074;2023-12-28T00:21:13;101177.16;;;2.86;100.00
75794;BME280;64418;47.536;19.074;2023-12-28T00:23:40;101164.16;;;2.72;100.00
75794;BME280;64418;47.536;19.074;2023-12-28T00:26:06;101188.94;;;2.74;100.00
75794;BME280;64418;47.536;19.074;2023-12-28T00:28:32;101189.34;;;2.70;100.00
75794;BME280;64418;47.536;19.074;2023-12-28T00:30:58;101197.94;;;2.64;100.00
75794;BME280;64418;47.536;19.074;2023-12-28T00:33:26;101193.69;;;2.61;100.00
75794;BME280;64418;47.536;19.074;2023-12-28T00:35:52;101192.00;;;2.60;100.00
75794;BME280;64418;47.536;19.074;2023-12-28T00:38:18;101192.69;;;2.53;100.00
75794;BME280;64418;47.536;19.074;2023-12-28T00:40:43;101189.16;;;2.52;100.00
75794;BME280;64418;47.536;19.074;2023-12-28T00:43:09;101187.72;;;2.48;100.00
75794;BME280;64418;47.536;19.074;2023-12-28T00:45:38;101190.81;;;2.43;100.00
75794;BME280;64418;47.536;19.074;2023-12-28T00:48:05;101193.88;;;2.39;100.00
75794;BME280;64418;47.536;19.074;2023-12-28T00:50:35;101196.13;;;2.34;100.00
75794;BME280;64418;47.536;19.074;2023-12-28T00:53:01;101088.53;;;1.81;100.00
75794;BME280;64418;47.536;19.074;2023-12-28T00:55:27;101186.41;;;2.33;100.00
75794;BME280;64418;47.536;19.074;2023-12-28T00:57:53;101196.37;;;2.31;100.00
75794;BME280;64418;47.536;19.074;2023-12-28T01:00:19;101198.34;;;2.29;100.00
75794;BME280;64418;47.536;19.074;2023-12-28T01:02:45;101206.00;;;2.43;100.00
75794;BME280;64418;47.536;19.074;2023-12-28T01:05:11;101208.94;;;2.40;100.00
75794;BME280;64418;47.536;19.074;2023-12-28T01:07:38;101202.63;;;2.41;100.00
75794;BME280;64418;47.536;19.074;2023-12-28T01:10:05;101205.81;;;2.35;100.00
75794;BME280;64418;47.536;19.074;2023-12-28T01:12:33;101156.03;;;2.04;100.00
75794;BME280;64418;47.536;19.074;2023-12-28T01:14:59;101197.38;;;2.30;100.00
75794;BME280;64418;47.536;19.074;2023-12-28T01:17:25;101201.28;;;2.26;100.00
75794;BME280;64418;47.536;19.074;2023-12-28T01:19:51;101204.62;;;2.18;100.00
75794;BME280;64418;47.536;19.074;2023-12-28T01:22:20;101207.03;;;2.21;100.00
75794;BME280;64418;47.536;19.074;2023-12-28T01:24:47;101195.47;;;2.21;100.00
75794;BME280;64418;47.536;19.074;2023-12-28T01:27:13;101204.75;;;2.17;100.00
75794;BME280;64418;47.536;19.074;2023-12-28T01:29:39;101202.13;;;2.26;100.00
75794;BME280;64418;47.536;19.074;2023-12-28T01:32:05;101191.09;;;2.20;100.00
75794;BME280;64418;47.536;19.074;2023-12-28T01:34:31;101199.66;;;2.14;100.00
75794;BME280;64418;47.536;19.074;2023-12-28T01:36:57;101201.38;;;2.15;100.00
75794;BME280;64418;47.536;19.074;2023-12-28T01:39:22;101190.47;;;2.07;100.00
75794;BME280;64418;47.536;19.074;2023-12-28T01:41:50;101187.22;;;2.03;100.00
75794;BME280;64418;47.536;19.074;2023-12-28T01:44:16;101182.75;;;2.04;100.00
75794;BME280;64418;47.536;19.074;2023-12-28T01:46:42;101169.63;;;2.01;100.00
75794;BME280;64418;47.536;19.074;2023-12-28T01:49:08;101169.50;;;2.02;100.00
75794;BME280;64418;47.536;19.074;2023-12-28T01:51:34;101173.69;;;1.95;100.00
75794;BME280;64418;47.536;19.074;2023-12-28T01:54:01;101171.12;;;1.93;100.00
75794;BME280;64418;47.536;19.074;2023-12-28T01:56:28;101162.69;;;1.88;100.00
75794;BME280;64418;47.536;19.074;2023-12-28T01:58:56;101104.25;;;1.54;100.00
75794;BME280;64418;47.536;19.074;2023-12-28T02:01:22;101167.28;;;1.86;100.00
75794;BME280;64418;47.536;19.074;2023-12-28T02:03:48;101161.09;;;1.86;100.00
75794;BME280;64418;47.536;19.074;2023-12-28T02:06:15;101152.97;;;1.87;100.00
75794;BME280;64418;47.536;19.074;2023-12-28T02:08:40;101151.81;;;2.11;100.00
75794;BME280;64418;47.536;19.074;2023-12-28T02:11:06;101160.94;;;2.08;100.00
75794;BME280;64418;47.536;19.074;2023-12-28T02:13:32;101112.91;;;1.87;100.00
75794;BME280;64418;47.536;19.074;2023-12-28T02:16:03;101147.84;;;2.05;100.00
75794;BME280;64418;47.536;19.074;2023-12-28T02:18:36;101153.78;;;2.09;100.00
75794;BME280;64418;47.536;19.074;2023-12-28T02:21:05;101128.37;;;1.93;100.00
75794;BME280;64418;47.536;19.074;2023-12-28T02:23:32;101144.12;;;1.97;100.00
75794;BME280;64418;47.536;19.074;2023-12-28T02:26:00;101143.91;;;2.00;100.00
75794;BME280;64418;47.536;19.074;2023-12-28T02:28:25;101147.81;;;1.96;100.00
75794;BME280;64418;47.536;19.074;2023-12-28T02:30:51;101136.19;;;1.85;100.00
75794;BME280;64418;47.536;19.074;2023-12-28T02:33:21;101146.22;;;1.93;100.00
75794;BME280;64418;47.536;19.074;2023-12-28T02:35:58;101138.22;;;1.93;100.00
75794;BME280;64418;47.536;19.074;2023-12-28T02:38:25;101135.13;;;1.88;100.00
75794;BME280;64418;47.536;19.074;2023-12-28T02:40:53;101138.47;;;1.90;100.00
75794;BME280;64418;47.536;19.074;2023-12-28T02:43:24;101107.72;;;1.65;100.00
75794;BME280;64418;47.536;19.074;2023-12-28T02:45:50;101132.63;;;1.75;100.00
75794;BME280;64418;47.536;19.074;2023-12-28T02:48:16;101123.00;;;1.84;100.00
75794;BME280;64418;47.536;19.074;2023-12-28T02:50:42;101111.34;;;1.64;100.00
75794;BME280;64418;47.536;19.074;2023-12-28T02:53:08;101126.72;;;1.72;100.00
75794;BME280;64418;47.536;19.074;2023-12-28T02:55:34;101123.66;;;1.76;100.00
75794;BME280;64418;47.536;19.074;2023-12-28T02:58:00;101126.13;;;1.68;100.00
75794;BME280;64418;47.536;19.074;2023-12-28T03:00:28;101120.31;;;1.63;100.00
75794;BME280;64418;47.536;19.074;2023-12-28T03:02:54;101120.59;;;1.60;100.00
75794;BME280;64418;47.536;19.074;2023-12-28T03:05:19;101120.88;;;1.57;100.00
75794;BME280;64418;47.536;19.074;2023-12-28T03:07:45;101112.13;;;1.55;100.00
75794;BME280;64418;47.536;19.074;2023-12-28T03:10:11;101116.28;;;1.48;100.00
75794;BME280;64418;47.536;19.074;2023-12-28T03:12:38;101107.19;;;1.51;100.00
75794;BME280;64418;47.536;19.074;2023-12-28T03:15:05;101113.19;;;1.43;100.00
75794;BME280;64418;47.536;19.074;2023-12-28T03:17:32;101109.22;;;1.58;100.00
75794;BME280;64418;47.536;19.074;2023-12-28T03:19:59;101109.66;;;1.63;100.00
75794;BME280;64418;47.536;19.074;2023-12-28T03:22:24;101111.06;;;1.67;100.00
75794;BME280;64418;47.536;19.074;2023-12-28T03:24:50;101120.31;;;1.63;100.00
75794;BME280;64418;47.536;19.074;2023-12-28T03:27:16;101110.66;;;1.62;100.00
75794;BME280;64418;47.536;19.074;2023-12-28T03:29:42;101097.22;;;1.53;100.00
75794;BME280;64418;47.536;19.074;2023-12-28T03:32:08;101101.37;;;1.45;100.00
75794;BME280;64418;47.536;19.074;2023-12-28T03:34:36;101093.84;;;1.51;100.00
75794;BME280;64418;47.536;19.074;2023-12-28T03:37:03;101099.19;;;1.51;100.00
75794;BME280;64418;47.536;19.074;2023-12-28T03:39:29;101097.87;;;1.45;100.00
75794;BME280;64418;47.536;19.074;2023-12-28T03:41:54;101096.50;;;1.30;100.00
75794;BME280;64418;47.536;19.074;2023-12-28T03:44:20;101092.59;;;1.34;100.00
75794;BME280;64418;47.536;19.074;2023-12-28T03:46:47;101093.25;;;1.47;100.00
75794;BME280;64418;47.536;19.074;2023-12-28T03:49:15;101088.25;;;1.54;100.00
75794;BME280;64418;47.536;19.074;2023-12-28T03:51:43;101088.63;;;1.49;100.00
75794;BME280;64418;47.536;19.074;2023-12-28T03:54:09;101083.09;;;1.41;100.00
75794;BME280;64418;47.536;19.074;2023-12-28T03:56:34;101070.28;;;1.35;100.00
75794;BME280;64418;47.536;19.074;2023-12-28T03:59:00;101063.03;;;1.26;100.00
75794;BME280;64418;47.536;19.074;2023-12-28T04:01:27;101073.97;;;1.23;100.00
75794;BME280;64418;47.536;19.074;2023-12-28T04:03:52;101063.84;;;1.17;100.00
75794;BME280;64418;47.536;19.074;2023-12-28T04:06:18;101066.03;;;1.12;100.00
75794;BME280;64418;47.536;19.074;2023-12-28T04:08:47;101067.59;;;1.14;100.00
75794;BME280;64418;47.536;19.074;2023-12-28T04:11:13;101071.37;;;1.12;100.00
75794;BME280;64418;47.536;19.074;2023-12-28T04:13:39;101073.31;;;1.10;100.00
75794;BME280;64418;47.536;19.074;2023-12-28T04:16:05;101043.84;;;0.90;100.00
75794;BME280;64418;47.536;19.074;2023-12-28T04:18:31;101072.47;;;1.09;100.00
75794;BME280;64418;47.536;19.074;2023-12-28T04:20:57;101057.66;;;1.16;100.00
75794;BME280;64418;47.536;19.074;2023-12-28T04:23:23;101063.03;;;1.05;100.00
75794;BME280;64418;47.536;19.074;2023-12-28T04:25:51;101047.03;;;1.05;100.00
75794;BME280;64418;47.536;19.074;2023-12-28T04:28:17;101051.91;;;1.00;100.00
75794;BME280;64418;47.536;19.074;2023-12-28T04:30:42;101018.44;;;0.75;100.00
75794;BME280;64418;47.536;19.074;2023-12-28T04:33:09;100990.03;;;0.54;100.00
75794;BME280;64418;47.536;19.074;2023-12-28T04:35:35;101045.78;;;0.88;100.00
75794;BME280;64418;47.536;19.074;2023-12-28T04:38:01;101047.84;;;0.85;100.00
75794;BME280;64418;47.536;19.074;2023-12-28T04:40:27;101040.50;;;0.77;100.00
75794;BME280;64418;47.536;19.074;2023-12-28T04:42:54;101034.31;;;0.77;100.00
75794;BME280;64418;47.536;19.074;2023-12-28T04:45:20;101036.38;;;0.73;100.00
75794;BME280;64418;47.536;19.074;2023-12-28T04:47:46;101029.56;;;0.80;100.00
75794;BME280;64418;47.536;19.074;2023-12-28T04:50:12;101028.97;;;0.77;100.00
75794;BME280;64418;47.536;19.074;2023-12-28T04:52:37;101028.53;;;0.92;100.00
75794;BME280;64418;47.536;19.074;2023-12-28T04:55:04;101026.63;;;0.83;100.00
75794;BME280;64418;47.536;19.074;2023-12-28T04:57:29;100988.38;;;0.53;100.00
75794;BME280;64418;47.536;19.074;2023-12-28T04:59:57;101033.13;;;0.70;100.00
75794;BME280;64418;47.536;19.074;2023-12-28T05:02:23;101041.75;;;0.62;100.00
75794;BME280;64418;47.536;19.074;2023-12-28T05:04:49;101044.53;;;0.61;100.00
75794;BME280;64418;47.536;19.074;2023-12-28T05:07:15;101028.09;;;0.56;100.00
75794;BME280;64418;47.536;19.074;2023-12-28T05:09:41;101042.28;;;0.56;100.00
75794;BME280;64418;47.536;19.074;2023-12-28T05:12:07;101050.63;;;0.52;100.00
75794;BME280;64418;47.536;19.074;2023-12-28T05:14:33;101049.09;;;0.49;100.00
75794;BME280;64418;47.536;19.074;2023-12-28T05:17:00;101044.41;;;0.62;100.00
75794;BME280;64418;47.536;19.074;2023-12-28T05:19:26;101043.94;;;0.57;100.00
75794;BME280;64418;47.536;19.074;2023-12-28T05:21:52;101050.81;;;0.71;100.00
75794;BME280;64418;47.536;19.074;2023-12-28T05:24:18;101052.41;;;0.62;100.00
75794;BME280;64418;47.536;19.074;2023-12-28T05:26:44;101055.47;;;0.58;100.00
75794;BME280;64418;47.536;19.074;2023-12-28T05:29:10;101054.00;;;0.54;100.00
75794;BME280;64418;47.536;19.074;2023-12-28T05:31:36;101056.34;;;0.47;100.00
75794;BME280;64418;47.536;19.074;2023-12-28T05:34:05;101055.97;;;0.52;100.00
75794;BME280;64418;47.536;19.074;2023-12-28T05:36:31;101053.78;;;0.45;100.00
75794;BME280;64418;47.536;19.074;2023-12-28T05:38:57;101045.44;;;0.39;100.00
75794;BME280;64418;47.536;19.074;2023-12-28T05:41:22;101040.13;;;0.39;100.00
75794;BME280;64418;47.536;19.074;2023-12-28T05:43:48;101045.97;;;0.33;100.00
75794;BME280;64418;47.536;19.074;2023-12-28T05:46:14;101049.78;;;0.51;100.00
75794;BME280;64418;47.536;19.074;2023-12-28T05:48:40;101063.47;;;0.46;100.00
75794;BME280;64418;47.536;19.074;2023-12-28T05:51:07;101066.28;;;0.45;100.00
75794;BME280;64418;47.536;19.074;2023-12-28T05:53:33;101062.38;;;0.60;100.00
75794;BME280;64418;47.536;19.074;2023-12-28T05:56:00;101067.91;;;0.68;100.00
75794;BME280;64418;47.536;19.074;2023-12-28T05:58:26;101045.66;;;0.58;100.00
75794;BME280;64418;47.536;19.074;2023-12-28T06:00:52;101045.59;;;0.37;100.00
75794;BME280;64418;47.536;19.074;2023-12-28T06:03:17;101063.16;;;0.40;100.00
75794;BME280;64418;47.536;19.074;2023-12-28T06:05:43;101063.16;;;0.40;100.00
75794;BME280;64418;47.536;19.074;2023-12-28T06:08:11;101064.25;;;0.37;100.00
75794;BME280;64418;47.536;19.074;2023-12-28T06:10:36;101059.75;;;0.38;100.00
75794;BME280;64418;47.536;19.074;2023-12-28T06:13:03;101057.81;;;0.40;100.00
75794;BME280;64418;47.536;19.074;2023-12-28T06:15:28;101063.16;;;0.40;100.00
75794;BME280;64418;47.536;19.074;2023-12-28T06:17:54;101064.94;;;0.51;100.00
75794;BME280;64418;47.536;19.074;2023-12-28T06:20:20;101062.41;;;0.49;100.00
75794;BME280;64418;47.536;19.074;2023-12-28T06:22:46;101066.03;;;0.48;100.00
75794;BME280;64418;47.536;19.074;2023-12-28T06:25:14;101051.97;;;0.46;100.00
75794;BME280;64418;47.536;19.074;2023-12-28T06:27:40;101059.94;;;0.57;100.00
75794;BME280;64418;47.536;19.074;2023-12-28T06:30:07;101064.78;;;0.63;100.00
75794;BME280;64418;47.536;19.074;2023-12-28T06:32:33;101065.38;;;0.67;100.00
75794;BME280;64418;47.536;19.074;2023-12-28T06:34:59;101072.44;;;0.57;100.00
75794;BME280;64418;47.536;19.074;2023-12-28T06:37:25;101066.88;;;0.48;100.00
75794;BME280;64418;47.536;19.074;2023-12-28T06:39:51;101071.37;;;0.48;100.00
75794;BME280;64418;47.536;19.074;2023-12-28T06:42:19;101069.66;;;0.47;100.00
75794;BME280;64418;47.536;19.074;2023-12-28T06:44:45;101072.94;;;0.39;100.00
75794;BME280;64418;47.536;19.074;2023-12-28T06:47:11;101077.78;;;0.45;100.00
75794;BME280;64418;47.536;19.074;2023-12-28T06:49:37;101088.34;;;0.36;100.00
75794;BME280;64418;47.536;19.074;2023-12-28T06:52:07;101095.13;;;0.40;100.00
75794;BME280;64418;47.536;19.074;2023-12-28T06:54:33;101107.22;;;0.44;100.00
75794;BME280;64418;47.536;19.074;2023-12-28T06:56:59;101098.75;;;0.39;100.00
75794;BME280;64418;47.536;19.074;2023-12-28T06:59:26;101098.72;;;0.50;100.00
75794;BME280;64418;47.536;19.074;2023-12-28T07:01:52;101104.28;;;0.58;100.00
75794;BME280;64418;47.536;19.074;2023-12-28T07:04:18;101107.81;;;0.59;100.00
75794;BME280;64418;47.536;19.074;2023-12-28T07:06:44;101103.06;;;0.62;100.00
75794;BME280;64418;47.536;19.074;2023-12-28T07:09:10;101099.69;;;0.60;100.00
75794;BME280;64418;47.536;19.074;2023-12-28T07:11:36;101102.97;;;0.64;100.00
75794;BME280;64418;47.536;19.074;2023-12-28T07:14:01;101098.69;;;0.61;100.00
75794;BME280;64418;47.536;19.074;2023-12-28T07:16:29;101093.38;;;0.61;100.00
75794;BME280;64418;47.536;19.074;2023-12-28T07:18:55;101087.44;;;0.58;100.00
75794;BME280;64418;47.536;19.074;2023-12-28T07:21:20;101098.22;;;0.67;100.00
75794;BME280;64418;47.536;19.074;2023-12-28T07:23:46;101090.06;;;0.69;100.00
75794;BME280;64418;47.536;19.074;2023-12-28T07:26:13;101087.63;;;0.77;100.00
75794;BME280;64418;47.536;19.074;2023-12-28T07:28:38;101087.75;;;0.86;100.00
75794;BME280;64418;47.536;19.074;2023-12-28T07:31:04;101096.69;;;0.85;100.00
75794;BME280;64418;47.536;19.074;2023-12-28T07:33:32;101103.16;;;0.83;100.00
75794;BME280;64418;47.536;19.074;2023-12-28T07:35:58;101098.88;;;0.80;100.00
75794;BME280;64418;47.536;19.074;2023-12-28T07:38:25;101111.94;;;0.94;100.00
75794;BME280;64418;47.536;19.074;2023-12-28T07:40:50;101107.31;;;0.96;100.00
75794;BME280;64418;47.536;19.074;2023-12-28T07:43:16;101108.25;;;1.07;100.00
75794;BME280;64418;47.536;19.074;2023-12-28T07:45:42;101099.97;;;1.10;100.00
75794;BME280;64418;47.536;19.074;2023-12-28T07:48:08;101116.41;;;1.26;100.00
75794;BME280;64418;47.536;19.074;2023-12-28T07:50:36;101112.50;;;1.30;100.00
75794;BME280;64418;47.536;19.074;2023-12-28T07:53:02;101109.34;;;1.36;100.00
75794;BME280;64418;47.536;19.074;2023-12-28T07:55:29;101118.53;;;1.43;100.00
75794;BME280;64418;47.536;19.074;2023-12-28T07:57:54;101113.25;;;1.53;100.00
75794;BME280;64418;47.536;19.074;2023-12-28T08:00:24;101106.81;;;1.85;100.00
75794;BME280;64418;47.536;19.074;2023-12-28T08:02:49;101107.78;;;2.45;100.00
75794;BME280;64418;47.536;19.074;2023-12-28T08:05:16;101074.91;;;2.64;100.00
75794;BME280;64418;47.536;19.074;2023-12-28T08:07:43;101093.22;;;3.26;100.00
75794;BME280;64418;47.536;19.074;2023-12-28T08:10:10;101094.75;;;3.57;100.00
75794;BME280;64418;47.536;19.074;2023-12-28T08:12:36;101087.63;;;4.22;100.00
75794;BME280;64418;47.536;19.074;2023-12-28T08:15:02;101079.00;;;4.46;100.00
75794;BME280;64418;47.536;19.074;2023-12-28T08:17:28;101083.25;;;4.48;100.00
75794;BME280;64418;47.536;19.074;2023-12-28T08:19:55;101087.34;;;4.87;100.00
75794;BME280;64418;47.536;19.074;2023-12-28T08:22:21;101093.28;;;5.09;100.00
75794;BME280;64418;47.536;19.074;2023-12-28T08:24:54;101077.00;;;5.28;100.00
75794;BME280;64418;47.536;19.074;2023-12-28T08:27:22;101092.44;;;5.26;100.00
75794;BME280;64418;47.536;19.074;2023-12-28T08:29:48;101058.59;;;4.62;100.00
75794;BME280;64418;47.536;19.074;2023-12-28T08:32:15;101103.50;;;5.23;100.00
75794;BME280;64418;47.536;19.074;2023-12-28T08:34:41;101105.09;;;5.16;100.00
75794;BME280;64418;47.536;19.074;2023-12-28T08:37:07;101108.63;;;6.29;100.00
75794;BME280;64418;47.536;19.074;2023-12-28T08:39:33;101047.88;;;5.59;100.00
75794;BME280;64418;47.536;19.074;2023-12-28T08:42:02;101118.78;;;6.43;100.00
75794;BME280;64418;47.536;19.074;2023-12-28T08:44:28;101109.25;;;7.23;100.00
75794;BME280;64418;47.536;19.074;2023-12-28T08:46:54;101107.25;;;7.65;100.00
75794;BME280;64418;47.536;19.074;2023-12-28T08:49:20;101102.09;;;8.11;100.00
75794;BME280;64418;47.536;19.074;2023-12-28T08:51:45;101108.16;;;8.13;100.00
75794;BME280;64418;47.536;19.074;2023-12-28T08:54:11;101112.56;;;8.06;99.51
75794;BME280;64418;47.536;19.074;2023-12-28T08:56:37;101114.91;;;8.72;100.00
75794;BME280;64418;47.536;19.074;2023-12-28T08:59:07;101119.94;;;8.75;94.70
75794;BME280;64418;47.536;19.074;2023-12-28T09:01:33;101101.87;;;8.76;92.41
75794;BME280;64418;47.536;19.074;2023-12-28T09:03:59;101113.81;;;9.57;88.88
75794;BME280;64418;47.536;19.074;2023-12-28T09:06:25;101109.41;;;10.46;86.53
75794;BME280;64418;47.536;19.074;2023-12-28T09:08:52;101108.91;;;10.42;78.31
75794;BME280;64418;47.536;19.074;2023-12-28T09:11:18;101100.31;;;10.24;84.85
75794;BME280;64418;47.536;19.074;2023-12-28T09:13:45;101100.41;;;10.96;76.36
75794;BME280;64418;47.536;19.074;2023-12-28T09:16:13;101091.50;;;9.93;77.41
75794;BME280;64418;47.536;19.074;2023-12-28T09:18:41;101082.66;;;10.93;76.99
75794;BME280;64418;47.536;19.074;2023-12-28T09:21:08;101080.16;;;11.34;73.66
75794;BME280;64418;47.536;19.074;2023-12-28T09:23:35;101092.09;;;10.97;73.96
75794;BME280;64418;47.536;19.074;2023-12-28T09:26:01;101085.53;;;11.06;69.49
75794;BME280;64418;47.536;19.074;2023-12-28T09:28:28;101076.53;;;11.70;68.23
75794;BME280;64418;47.536;19.074;2023-12-28T09:30:54;101074.19;;;11.88;64.44
75794;BME280;64418;47.536;19.074;2023-12-28T09:33:22;101071.09;;;11.21;67.76
75794;BME280;64418;47.536;19.074;2023-12-28T09:35:48;101040.97;;;12.20;66.52
75794;BME280;64418;47.536;19.074;2023-12-28T09:38:14;101063.97;;;11.90;63.56
75794;BME280;64418;47.536;19.074;2023-12-28T09:40:42;101061.25;;;11.90;63.69
75794;BME280;64418;47.536;19.074;2023-12-28T09:43:13;101057.81;;;12.09;62.16
75794;BME280;64418;47.536;19.074;2023-12-28T09:45:41;101021.09;;;12.61;63.20
75794;BME280;64418;47.536;19.074;2023-12-28T09:48:09;101039.19;;;13.01;60.32
75794;BME280;64418;47.536;19.074;2023-12-28T09:50:37;101048.47;;;13.79;59.50
75794;BME280;64418;47.536;19.074;2023-12-28T09:53:03;101041.28;;;14.17;56.56
75794;BME280;64418;47.536;19.074;2023-12-28T09:55:29;101013.25;;;13.97;54.84
75794;BME280;64418;47.536;19.074;2023-12-28T09:57:56;101037.34;;;13.87;56.87
75794;BME280;64418;47.536;19.074;2023-12-28T10:00:23;101035.00;;;14.17;54.22
75794;BME280;64418;47.536;19.074;2023-12-28T10:02:51;101023.97;;;13.26;57.01
75794;BME280;64418;47.536;19.074;2023-12-28T10:05:19;101027.50;;;13.99;56.29
75794;BME280;64418;47.536;19.074;2023-12-28T10:07:47;101011.44;;;14.49;54.50
75794;BME280;64418;47.536;19.074;2023-12-28T10:10:13;101018.22;;;14.13;53.70
75794;BME280;64418;47.536;19.074;2023-12-28T10:12:39;101010.37;;;13.26;56.04
75794;BME280;64418;47.536;19.074;2023-12-28T10:15:06;101005.12;;;13.71;55.04
75794;BME280;64418;47.536;19.074;2023-12-28T10:17:32;100994.03;;;13.66;55.07
75794;BME280;64418;47.536;19.074;2023-12-28T10:19:58;100995.59;;;12.14;61.64
75794;BME280;64418;47.536;19.074;2023-12-28T10:22:24;100986.50;;;11.38;63.23
75794;BME280;64418;47.536;19.074;2023-12-28T10:24:52;100977.56;;;12.47;60.32
75794;BME280;64418;47.536;19.074;2023-12-28T10:27:18;100981.50;;;13.52;57.21
75794;BME280;64418;47.536;19.074;2023-12-28T10:29:43;100983.78;;;14.45;54.25
75794;BME280;64418;47.536;19.074;2023-12-28T10:32:09;100977.13;;;14.21;53.11
75794;BME280;64418;47.536;19.074;2023-12-28T10:34:35;100983.22;;;14.23;53.89
75794;BME280;64418;47.536;19.074;2023-12-28T10:37:02;100969.91;;;14.84;51.99
75794;BME280;64418;47.536;19.074;2023-12-28T10:39:31;100979.84;;;14.21;53.84
75794;BME280;64418;47.536;19.074;2023-12-28T10:42:04;100968.00;;;14.85;51.47
75794;BME280;64418;47.536;19.074;2023-12-28T10:44:35;100972.31;;;14.23;53.20
75794;BME280;64418;47.536;19.074;2023-12-28T10:47:10;100966.16;;;15.10;51.54
75794;BME280;64418;47.536;19.074;2023-12-28T10:49:41;100959.47;;;13.07;55.41
75794;BME280;64418;47.536;19.074;2023-12-28T10:52:09;100956.06;;;12.66;58.14
75794;BME280;64418;47.536;19.074;2023-12-28T10:54:44;100945.84;;;13.07;57.20
75794;BME280;64418;47.536;19.074;2023-12-28T10:57:19;100951.69;;;12.84;57.81
75794;BME280;64418;47.536;19.074;2023-12-28T10:59:58;100946.44;;;12.70;58.48
75794;BME280;64418;47.536;19.074;2023-12-28T11:02:29;100952.34;;;14.42;54.27
75794;BME280;64418;47.536;19.074;2023-12-28T11:04:59;100947.53;;;13.61;53.82
75794;BME280;64418;47.536;19.074;2023-12-28T11:07:26;100948.22;;;14.14;54.37
75794;BME280;64418;47.536;19.074;2023-12-28T11:09:53;100937.97;;;14.91;51.65
75794;BME280;64418;47.536;19.074;2023-12-28T11:12:22;100919.28;;;14.64;52.16
75794;BME280;64418;47.536;19.074;2023-12-28T11:14:49;100914.69;;;14.89;51.74
75794;BME280;64418;47.536;19.074;2023-12-28T11:17:16;100922.19;;;13.67;54.94
75794;BME280;64418;47.536;19.074;2023-12-28T11:19:50;100923.66;;;12.71;57.62
75794;BME280;64418;47.536;19.074;2023-12-28T11:22:18;100911.16;;;14.51;53.54
75794;BME280;64418;47.536;19.074;2023-12-28T11:24:45;100912.81;;;15.14;51.60
75794;BME280;64418;47.536;19.074;2023-12-28T11:27:11;100906.09;;;13.45;54.65
75794;BME280;64418;47.536;19.074;2023-12-28T11:29:38;100903.56;;;14.59;53.25
75794;BME280;64418;47.536;19.074;2023-12-28T11:32:09;100904.50;;;15.88;48.77
75794;BME280;64418;47.536;19.074;2023-12-28T11:34:35;100897.25;;;16.30;48.35
75794;BME280;64418;47.536;19.074;2023-12-28T11:37:04;100869.91;;;14.72;50.59
75794;BME280;64418;47.536;19.074;2023-12-28T11:39:33;100889.00;;;16.49;48.36
75794;BME280;64418;47.536;19.074;2023-12-28T11:42:00;100873.84;;;16.34;47.63
75794;BME280;64418;47.536;19.074;2023-12-28T11:44:27;100872.56;;;16.49;47.68
75794;BME280;64418;47.536;19.074;2023-12-28T11:46:55;100878.69;;;17.15;45.81
75794;BME280;64418;47.536;19.074;2023-12-28T11:49:25;100871.84;;;16.42;47.31
75794;BME280;64418;47.536;19.074;2023-12-28T11:51:58;100874.53;;;17.24;45.16
75794;BME280;64418;47.536;19.074;2023-12-28T11:54:24;100861.41;;;16.50;46.64
75794;BME280;64418;47.536;19.074;2023-12-28T11:56:50;100855.97;;;16.02;48.48
75794;BME280;64418;47.536;19.074;2023-12-28T11:59:16;100855.22;;;16.55;47.86
75794;BME280;64418;47.536;19.074;2023-12-28T12:01:42;100848.41;;;15.68;49.70
75794;BME280;64418;47.536;19.074;2023-12-28T12:04:11;100848.97;;;16.06;48.30
75794;BME280;64418;47.536;19.074;2023-12-28T12:06:37;100836.28;;;15.82;49.72
75794;BME280;64418;47.536;19.074;2023-12-28T12:09:03;100844.03;;;16.45;47.91
75794;BME280;64418;47.536;19.074;2023-12-28T12:11:29;100848.03;;;15.64;50.11
75794;BME280;64418;47.536;19.074;2023-12-28T12:13:55;100843.53;;;16.06;48.79
75794;BME280;64418;47.536;19.074;2023-12-28T12:16:21;100840.56;;;14.67;51.94
75794;BME280;64418;47.536;19.074;2023-12-28T12:18:48;100843.78;;;15.07;51.17
75794;BME280;64418;47.536;19.074;2023-12-28T12:21:16;100834.81;;;15.00;51.52
75794;BME280;64418;47.536;19.074;2023-12-28T12:23:43;100828.72;;;14.80;52.26
75794;BME280;64418;47.536;19.074;2023-12-28T12:26:08;100827.56;;;14.94;51.54
75794;BME280;64418;47.536;19.074;2023-12-28T12:28:34;100839.91;;;14.72;52.63
75794;BME280;64418;47.536;19.074;2023-12-28T12:31:00;100837.28;;;14.59;52.73
75794;BME280;64418;47.536;19.074;2023-12-28T12:33:27;100832.94;;;15.43;51.36
75794;BME280;64418;47.536;19.074;2023-12-28T12:35:53;100835.28;;;15.76;50.99
75794;BME280;64418;47.536;19.074;2023-12-28T12:38:21;100829.47;;;15.12;51.67